Time;durP1;ratioP1;P1;durP2;ratioP2;P2;SDS_P1;SDS_P2;PMS_P1;PMS_P2;Temp;Humidity;BMP_temperature;BMP_pressure;BME280_temperature;BME280_humidity;BME280_pressure;Samples;Min_cycle;Max_cycle;Signal;HPM_P1;HPM_P2
2023/11/27 00:00:27;;;;;;;4.07;1.02;;;;;;;14.60;64.09;101149.25;10578269;27;20047;-82
2023/11/27 00:05:49;;;;;;;4.93;1.02;;;;;;;14.88;60.91;101182.19;10596475;27;20472;-82
2023/11/27 00:11:13;;;;;;;1.48;0.80;;;;;;;14.88;60.83;101185.72;10577351;27;20107;-82
2023/11/27 00:16:35;;;;;;;2.53;1.60;;;;;;;14.81;62.49;101191.91;10564967;27;20043;-82
2023/11/27 00:21:58;;;;;;;2.75;0.98;;;;;;;14.73;64.22;101196.28;10564498;27;20047;-82
2023/11/27 00:27:22;;;;;;;3.65;1.20;;;;;;;14.68;66.35;101204.22;10548696;27;20044;-82
2023/11/27 00:32:44;;;;;;;2.28;1.13;;;;;;;14.39;69.62;101207.56;10591573;27;20040;-82
2023/11/27 00:38:07;;;;;;;2.72;1.08;;;;;;;14.21;67.43;101200.31;10561518;27;20060;-82
2023/11/27 00:43:31;;;;;;;2.10;0.95;;;;;;;13.98;61.44;101211.63;10573882;27;20079;-82
2023/11/27 00:48:53;;;;;;;3.65;0.93;;;;;;;14.04;57.83;101204.63;10584052;27;20111;-83
2023/11/27 00:54:15;;;;;;;2.13;0.80;;;;;;;14.13;54.89;101218.84;10595042;27;20597;-83
2023/11/27 00:59:40;;;;;;;3.33;1.10;;;;;;;14.15;53.01;101221.50;10584970;27;20655;-82
2023/11/27 01:05:06;;;;;;;2.05;0.77;;;;;;;14.13;52.40;101236.53;10551973;27;20055;-83
2023/11/27 01:10:29;;;;;;;2.55;0.68;;;;;;;14.28;50.73;101226.03;10563081;27;20047;-83
2023/11/27 01:15:56;;;;;;;1.42;0.90;;;;;;;14.46;49.83;101226.22;10588078;27;20046;-83
2023/11/27 01:21:19;;;;;;;0.90;0.60;;;;;;;14.73;48.15;101249.44;10578730;27;20048;-83
2023/11/27 01:26:42;;;;;;;1.45;0.73;;;;;;;15.02;45.65;101255.81;10548020;27;20134;-82
2023/11/27 01:32:06;;;;;;;2.65;0.73;;;;;;;15.12;44.69;101256.75;10561719;27;20058;-83
2023/11/27 01:37:28;;;;;;;5.82;1.05;;;;;;;15.18;47.49;101242.56;10567730;27;20047;-82
2023/11/27 01:42:50;;;;;;;3.70;1.20;;;;;;;15.09;54.27;101247.00;10553740;28;20648;-83
2023/11/27 01:48:14;;;;;;;3.83;0.80;;;;;;;14.94;59.87;101248.66;10518291;28;20040;-83
2023/11/27 01:53:37;;;;;;;4.90;1.70;;;;;;;14.86;64.64;101250.38;10527801;28;20052;-83
2023/11/27 01:59:00;;;;;;;6.32;1.98;;;;;;;15.02;65.52;101238.97;10538691;28;20082;-82
2023/11/27 02:04:25;;;;;;;3.67;1.30;;;;;;;15.16;64.43;101259.41;10520891;28;20142;-83
2023/11/27 02:09:47;;;;;;;4.57;1.13;;;;;;;15.00;65.35;101244.28;10540494;28;20042;-83
2023/11/27 02:15:11;;;;;;;6.18;1.23;;;;;;;14.85;60.75;101264.56;10540740;28;20048;-82
2023/11/27 02:20:38;;;;;;;4.00;1.65;;;;;;;14.53;57.59;101265.22;10526909;28;20062;-83
2023/11/27 02:26:02;;;;;;;1.98;1.20;;;;;;;14.38;55.26;101283.69;10523470;28;20040;-83
2023/11/27 02:31:25;;;;;;;3.15;0.90;;;;;;;14.21;54.03;101272.00;10526728;28;20109;-82
2023/11/27 02:36:50;;;;;;;2.70;1.00;;;;;;;14.20;52.58;101272.88;10525218;28;20047;-84
2023/11/27 02:42:14;;;;;;;1.00;0.88;;;;;;;14.17;52.16;101279.09;10527433;28;20044;-84
2023/11/27 02:47:37;;;;;;;2.40;1.00;;;;;;;14.09;52.24;101298.47;10538979;28;20116;-83
2023/11/27 02:53:00;;;;;;;1.13;0.82;;;;;;;14.13;52.13;101295.84;10524793;28;20044;-83
2023/11/27 02:58:24;;;;;;;2.47;1.30;;;;;;;14.18;49.33;101304.72;10538275;28;20052;-84
2023/11/27 03:03:47;;;;;;;1.83;0.93;;;;;;;14.13;47.23;101319.72;10523880;28;20125;-83
2023/11/27 03:09:10;;;;;;;1.98;0.80;;;;;;;14.16;47.00;101321.53;10523329;28;20052;-83
2023/11/27 03:14:34;;;;;;;1.48;0.80;;;;;;;14.28;47.08;101317.25;10524378;28;20048;-84
2023/11/27 03:19:56;;;;;;;3.92;1.08;;;;;;;14.51;46.40;101317.47;10522993;28;20050;-83
2023/11/27 03:25:19;;;;;;;1.85;0.75;;;;;;;14.62;46.05;101313.16;10524374;28;20037;-83
2023/11/27 03:30:43;;;;;;;1.15;0.70;;;;;;;14.76;45.84;101318.56;10522115;28;20405;-83
2023/11/27 03:36:06;;;;;;;5.80;0.93;;;;;;;14.91;46.10;101317.75;10522886;28;20109;-83
2023/11/27 03:41:29;;;;;;;4.60;1.00;;;;;;;14.95;45.67;101324.91;10536884;28;20101;-83
2023/11/27 03:46:53;;;;;;;4.07;1.20;;;;;;;14.82;45.89;101337.22;10573743;27;20047;-83
2023/11/27 03:52:16;;;;;;;2.42;1.30;;;;;;;14.81;46.79;101340.75;10583729;27;20054;-83
2023/11/27 03:57:38;;;;;;;4.53;0.90;;;;;;;15.05;45.49;101346.22;10598607;27;20043;-83
2023/11/27 04:03:12;;;;;;;2.53;0.80;;;;;;;15.04;44.44;101349.75;10559458;28;20043;-83
2023/11/27 04:08:38;;;;;;;0.98;0.75;;;;;;;15.00;44.76;101353.28;10548463;27;20500;-83
2023/11/27 04:14:02;;;;;;;2.83;1.10;;;;;;;14.76;45.67;101371.72;10569623;27;20113;-83
2023/11/27 04:19:28;;;;;;;2.63;0.80;;;;;;;14.81;46.38;101372.66;10570290;27;20096;-83
2023/11/27 04:24:51;;;;;;;4.53;1.10;;;;;;;14.94;47.26;101377.19;10573289;27;20052;-84
2023/11/27 04:30:13;;;;;;;2.33;0.98;;;;;;;15.01;47.70;101378.13;10584330;27;20048;-84
2023/11/27 04:35:38;;;;;;;2.65;1.00;;;;;;;14.99;47.86;101377.22;10577882;27;20055;-84
2023/11/27 04:41:03;;;;;;;3.00;0.80;;;;;;;15.13;48.00;101376.44;10565561;27;20559;-83
2023/11/27 04:46:27;;;;;;;2.65;1.00;;;;;;;15.04;49.34;101380.78;10592287;27;20538;-84
2023/11/27 04:51:54;;;;;;;4.68;1.00;;;;;;;14.87;48.89;101398.38;10584204;27;20067;-85
2023/11/27 04:57:18;;;;;;;2.22;0.82;;;;;;;14.66;48.51;101409.72;10563410;27;20048;-86
2023/11/27 05:02:43;;;;;;;5.15;2.55;;;;;;;14.62;47.78;101424.75;10563758;27;20496;-84
2023/11/27 05:08:07;;;;;;;3.25;1.52;;;;;;;14.69;47.14;101434.56;10590869;27;20051;-85
2023/11/27 05:13:29;;;;;;;3.83;1.85;;;;;;;14.95;46.90;101440.13;10597520;27;20092;-85
2023/11/27 05:18:51;;;;;;;3.92;1.60;;;;;;;15.32;46.36;101451.91;10587437;27;20043;-85
2023/11/27 05:24:15;;;;;;;7.18;1.00;;;;;;;15.47;46.76;101461.78;10581630;27;20393;-84
2023/11/27 05:29:38;;;;;;;3.38;1.27;;;;;;;15.54;46.81;101463.66;10603849;27;20134;-84
2023/11/27 05:35:00;;;;;;;2.15;0.95;;;;;;;15.63;46.94;101471.66;10584910;27;20069;-84
2023/11/27 05:40:25;;;;;;;4.72;1.10;;;;;;;15.48;47.63;101475.13;10584882;28;20059;-83
2023/11/27 05:45:47;;;;;;;3.22;1.25;;;;;;;15.34;47.76;101481.22;10567821;28;20051;-83
2023/11/27 05:51:11;;;;;;;1.38;0.75;;;;;;;15.18;46.92;101487.25;10594257;28;20065;-93
2023/11/27 05:56:34;;;;;;;1.95;1.05;;;;;;;15.07;46.14;101500.47;10584451;28;20126;-91
2023/11/27 06:01:58;;;;;;;3.05;1.20;;;;;;;14.94;45.96;101507.47;10570667;28;20102;-92
2023/11/27 06:07:20;;;;;;;5.85;1.00;;;;;;;17.35;41.49;101509.56;10582419;28;20047;-91
2023/11/27 06:12:44;;;;;;;3.50;0.70;;;;;;;19.34;37.29;101516.81;10576407;28;20164;-86
2023/11/27 06:18:06;;;;;;;1.08;1.08;;;;;;;22.30;33.51;101522.50;10575938;28;20850;-88
2023/11/27 06:23:28;;;;;;;3.80;0.90;;;;;;;24.11;30.75;101525.28;10578570;27;20047;-84
2023/11/27 06:28:52;;;;;;;2.33;0.70;;;;;;;25.30;29.30;101522.59;10565289;28;20043;-84
2023/11/27 06:34:14;;;;;;;4.25;2.70;;;;;;;26.00;28.78;101522.88;10594616;28;20104;-82
2023/11/27 06:39:37;;;;;;;1.27;1.00;;;;;;;27.48;27.25;101527.97;10570672;28;20083;-82
2023/11/27 06:45:01;;;;;;;2.20;0.60;;;;;;;27.86;26.58;101526.34;10585200;27;20054;-82
2023/11/27 06:50:23;;;;;;;2.53;1.00;;;;;;;26.63;27.40;101550.38;10588395;27;20121;-82
2023/11/27 06:55:46;;;;;;;1.92;0.70;;;;;;;26.72;26.86;101561.72;10602160;27;20428;-82
2023/11/27 07:01:12;;;;;;;2.05;1.00;;;;;;;27.53;25.98;101555.81;10595643;27;20053;-80
2023/11/27 07:06:35;;;;;;;2.08;0.77;;;;;;;26.06;27.40;101559.66;10600278;27;20043;-82
2023/11/27 07:11:58;;;;;;;2.40;0.82;;;;;;;26.71;26.69;101570.81;10589513;27;20096;-81
2023/11/27 07:17:22;;;;;;;2.17;1.00;;;;;;;26.38;27.57;101569.38;10572977;27;20043;-83
2023/11/27 07:22:45;;;;;;;0.90;0.55;;;;;;;29.17;24.25;101576.41;10592393;27;20044;-83
2023/11/27 07:28:07;;;;;;;16.83;7.78;;;;;;;29.51;23.45;101582.94;10567915;27;20083;-84
2023/11/27 07:33:31;;;;;;;15.43;9.00;;;;;;;27.14;26.06;101588.13;10589050;27;20126;-83
2023/11/27 07:38:53;;;;;;;7.38;4.53;;;;;;;24.78;28.30;101590.88;10600067;27;20067;-82
2023/11/27 07:44:16;;;;;;;9.13;3.97;;;;;;;22.99;30.58;101595.50;10567569;27;20120;-82
2023/11/27 07:49:40;;;;;;;14.98;6.82;;;;;;;21.21;32.93;101604.13;10564225;27;20036;-82
2023/11/27 07:55:04;;;;;;;3.70;2.33;;;;;;;21.98;32.73;101603.81;10576012;27;20039;-80
2023/11/27 08:00:27;;;;;;;3.00;0.95;;;;;;;22.50;31.41;101611.78;10578830;27;20055;-80
2023/11/27 08:05:52;;;;;;;2.20;0.90;;;;;;;21.21;33.19;101622.94;10589679;27;20039;-81
2023/11/27 08:11:14;;;;;;;2.20;1.25;;;;;;;20.96;33.24;101629.53;10587587;27;20091;-80
2023/11/27 08:16:37;;;;;;;1.85;0.70;;;;;;;20.74;33.50;101628.03;10605241;27;20066;-83
2023/11/27 08:22:03;;;;;;;2.22;0.98;;;;;;;20.56;33.74;101627.31;10604984;27;20123;-83
2023/11/27 08:27:26;;;;;;;9.20;1.27;;;;;;;20.05;33.66;101630.53;10606481;27;20047;-84
2023/11/27 08:32:49;;;;;;;2.42;0.88;;;;;;;20.67;33.66;101633.47;10594570;27;20057;-81
2023/11/27 08:38:12;;;;;;;2.97;0.90;;;;;;;24.76;28.87;101633.25;10604613;27;20035;-82
2023/11/27 08:43:35;;;;;;;1.55;0.60;;;;;;;23.83;30.12;101641.13;10563091;28;20059;-81
2023/11/27 08:48:58;;;;;;;2.17;0.77;;;;;;;22.87;31.03;101633.50;10576464;27;20044;-80
2023/11/27 08:54:24;;;;;;;2.45;1.00;;;;;;;21.29;33.23;101644.31;10602648;27;20043;-81
2023/11/27 08:59:46;;;;;;;2.35;0.70;;;;;;;20.90;34.08;101632.28;10583761;27;20130;-79
2023/11/27 09:05:09;;;;;;;3.95;0.70;;;;;;;21.02;33.99;101626.75;10566690;28;20079;-79
2023/11/27 09:10:33;;;;;;;0.82;0.65;;;;;;;21.29;33.73;101617.44;10579769;27;20058;-82
2023/11/27 09:15:55;;;;;;;0.80;0.60;;;;;;;20.88;34.05;101620.66;10572548;27;20412;-83
2023/11/27 09:21:18;;;;;;;1.05;0.60;;;;;;;20.55;33.94;101614.81;10579038;27;20055;-82
2023/11/27 09:26:42;;;;;;;0.95;0.52;;;;;;;20.27;34.63;101618.69;10572524;27;20031;-82
2023/11/27 09:32:05;;;;;;;2.03;0.55;;;;;;;20.81;34.46;101619.88;10573963;27;20086;-81
2023/11/27 09:37:29;;;;;;;2.00;0.60;;;;;;;20.78;34.38;101608.28;10582004;27;20166;-84
2023/11/27 09:42:53;;;;;;;2.00;0.70;;;;;;;21.11;33.76;101617.69;10594352;27;20555;-81
2023/11/27 09:48:18;;;;;;;0.82;0.70;;;;;;;21.25;33.59;101608.56;10599063;28;20047;-82
2023/11/27 09:53:49;;;;;;;1.75;0.55;;;;;;;21.77;33.61;101614.00;10573373;28;20051;-84
2023/11/27 09:59:12;;;;;;;1.75;0.57;;;;;;;26.57;28.50;101609.28;10601708;28;20050;-82
2023/11/27 10:04:36;;;;;;;1.58;0.70;;;;;;;26.33;27.45;101610.16;10601066;28;20047;-80
2023/11/27 10:09:58;;;;;;;1.80;0.70;;;;;;;28.46;25.55;101596.09;10594192;28;20051;-79
2023/11/27 10:15:26;;;;;;;4.75;0.70;;;;;;;27.52;25.63;101601.06;10599528;28;20047;-80
2023/11/27 10:20:50;;;;;;;1.45;0.50;;;;;;;24.90;28.33;101598.63;10602741;27;20050;-79
2023/11/27 10:26:13;;;;;;;2.83;0.57;;;;;;;23.48;29.83;101591.72;10596430;27;20067;-80
2023/11/27 10:31:37;;;;;;;0.40;0.40;;;;;;;24.91;28.39;101596.81;10609657;27;20050;-82
2023/11/27 10:37:01;;;;;;;3.08;0.82;;;;;;;27.32;25.59;101590.09;10587244;27;20069;-81
2023/11/27 10:42:30;;;;;;;5.93;1.00;;;;;;;28.74;24.56;101587.56;10590857;27;20075;-85
2023/11/27 10:47:56;;;;;;;1.70;0.60;;;;;;;29.82;23.41;101583.16;10583478;27;20039;-80
2023/11/27 10:53:22;;;;;;;2.95;0.75;;;;;;;26.67;25.83;101574.56;10596297;27;20057;-82
2023/11/27 10:58:46;;;;;;;5.50;0.63;;;;;;;23.74;29.22;101568.56;10589558;27;21699;-80
2023/11/27 11:04:17;;;;;;;5.45;1.10;;;;;;;21.95;31.93;101566.19;10595119;27;20075;-79
2023/11/27 11:09:44;;;;;;;6.57;1.98;;;;;;;22.08;31.95;101565.06;10576999;27;20070;-79
2023/11/27 11:15:11;;;;;;;3.58;0.70;;;;;;;22.21;32.35;101558.53;10608637;27;20416;-81
2023/11/27 11:20:54;;;;;;;3.00;1.00;;;;;;;22.03;32.71;101562.47;10586852;27;20059;-82
2023/11/27 11:26:38;;;;;;;3.22;0.68;;;;;;;22.03;32.90;101558.91;10607591;27;20043;-78
2023/11/27 11:32:18;;;;;;;3.78;0.70;;;;;;;21.77;33.37;101562.94;10564238;28;20044;-81
2023/11/27 11:37:49;;;;;;;2.88;0.80;;;;;;;21.49;33.51;101561.63;10563063;28;20492;-80
2023/11/27 11:43:11;;;;;;;3.05;0.60;;;;;;;21.41;33.31;101553.66;10549886;28;20047;-83
2023/11/27 11:48:38;;;;;;;1.83;0.70;;;;;;;21.00;32.97;101548.03;10547038;28;20497;-83
2023/11/27 11:54:04;;;;;;;1.30;0.60;;;;;;;21.08;32.50;101543.41;10577004;28;20047;-82
2023/11/27 11:59:37;;;;;;;2.40;0.50;;;;;;;21.24;32.40;101549.50;10550850;28;20044;-80
2023/11/27 12:04:59;;;;;;;0.60;0.50;;;;;;;20.88;32.09;101557.13;10560496;28;20135;-77
2023/11/27 12:10:28;;;;;;;2.28;0.95;;;;;;;20.43;32.08;101555.94;10578541;28;20075;-81
2023/11/27 12:15:56;;;;;;;3.53;0.73;;;;;;;20.21;33.14;101551.72;10563971;28;20044;-80
2023/11/27 12:21:22;;;;;;;0.75;0.50;;;;;;;19.97;33.43;101543.94;10571769;28;20079;-81
2023/11/27 12:26:52;;;;;;;2.67;0.60;;;;;;;19.53;33.61;101550.59;10577781;28;20046;-82
2023/11/27 12:32:14;;;;;;;2.30;0.60;;;;;;;19.20;33.40;101572.25;10575577;28;20047;-80
2023/11/27 12:37:42;;;;;;;0.50;0.50;;;;;;;19.13;32.70;101560.69;10571068;28;20039;-84
2023/11/27 12:43:08;;;;;;;1.95;0.60;;;;;;;18.86;33.24;101577.81;10572811;28;20079;-83
2023/11/27 12:48:36;;;;;;;3.92;0.50;;;;;;;18.81;33.77;101568.91;10525760;28;20059;-87
2023/11/27 12:54:01;;;;;;;6.03;1.00;;;;;;;18.80;33.63;101577.84;10525857;28;20044;-87
2023/11/27 12:59:24;;;;;;;3.13;0.80;;;;;;;18.85;33.42;101580.47;10534150;28;20140;-84
2023/11/27 13:04:47;;;;;;;3.53;0.77;;;;;;;18.78;34.38;101579.63;10518233;28;20059;-83
2023/11/27 13:10:10;;;;;;;2.92;0.50;;;;;;;18.40;35.60;101576.19;10525969;28;20055;-83
2023/11/27 13:15:34;;;;;;;1.58;0.80;;;;;;;18.32;35.69;101584.22;10531454;28;20048;-84
2023/11/27 13:20:58;;;;;;;1.30;0.45;;;;;;;18.24;34.93;101586.97;10533634;28;20036;-85
2023/11/27 13:26:28;;;;;;;2.35;0.82;;;;;;;18.14;35.13;101579.84;10521162;28;20051;-84
2023/11/27 13:31:52;;;;;;;1.52;0.57;;;;;;;18.12;34.92;101596.75;10532382;28;20101;-83
2023/11/27 13:37:18;;;;;;;2.78;0.65;;;;;;;18.02;34.67;101589.66;10531651;28;20138;-82
2023/11/27 13:42:42;;;;;;;1.98;0.77;;;;;;;17.80;35.52;101580.78;10532444;28;20047;-80
2023/11/27 13:48:13;;;;;;;0.93;0.80;;;;;;;17.62;36.00;101589.69;10536212;28;20047;-81
2023/11/27 13:53:38;;;;;;;2.83;0.55;;;;;;;17.41;36.14;101600.31;10571070;28;20054;-91
2023/11/27 13:59:01;;;;;;;0.47;0.40;;;;;;;17.14;35.93;101595.81;10525635;28;20048;-79
2023/11/27 14:04:28;;;;;;;2.47;0.68;;;;;;;16.86;35.58;101599.31;10546349;28;20097;-80
2023/11/27 14:09:57;;;;;;;0.50;0.40;;;;;;;16.60;35.68;101594.78;10521192;28;20101;-79
2023/11/27 14:15:23;;;;;;;2.28;0.60;;;;;;;16.42;35.74;101601.75;10558145;28;20183;-80
2023/11/27 14:20:52;;;;;;;0.85;0.50;;;;;;;16.15;35.97;101597.16;10534968;28;20048;-79
2023/11/27 14:31:52;;;;;;;1.15;0.60;;;;;;;15.80;36.23;101608.47;10517319;28;20040;-79
2023/11/27 14:37:16;;;;;;;2.45;0.93;;;;;;;15.66;36.57;101607.47;10530712;28;20505;-79
2023/11/27 14:42:40;;;;;;;6.72;2.08;;;;;;;15.44;37.44;101602.78;10557817;28;20071;-79
2023/11/27 14:48:03;;;;;;;1.88;1.38;;;;;;;15.29;38.03;101610.66;10558552;28;20044;-80
2023/11/27 14:53:27;;;;;;;2.72;0.80;;;;;;;15.14;38.74;101624.66;10530279;28;20044;-79
2023/11/27 14:58:49;;;;;;;2.97;1.40;;;;;;;14.85;39.25;101632.31;10518435;28;20060;-80
2023/11/27 15:04:14;;;;;;;14.30;8.32;;;;;;;14.64;39.89;101624.94;10555221;28;20481;-79
2023/11/27 15:09:38;;;;;;;4.35;2.20;;;;;;;14.62;40.49;101625.81;10552660;28;20040;-80
2023/11/27 15:15:01;;;;;;;2.90;1.63;;;;;;;14.64;40.84;101626.72;10552522;28;20047;-80
2023/11/27 15:20:26;;;;;;;2.42;1.05;;;;;;;14.60;41.19;101617.81;10572664;28;20095;-79
2023/11/27 15:25:52;;;;;;;2.45;1.05;;;;;;;14.90;40.62;101627.91;10544971;28;20126;-91
2023/11/27 15:31:16;;;;;;;1.23;0.95;;;;;;;14.85;40.81;101616.34;10580581;28;20477;-85
2023/11/27 15:36:39;;;;;;;3.20;1.10;;;;;;;14.82;41.11;101626.97;10550859;28;20404;-87
2023/11/27 15:42:06;;;;;;;1.75;0.68;;;;;;;14.77;41.38;101641.09;10554696;28;20048;-82
2023/11/27 15:47:29;;;;;;;3.35;1.77;;;;;;;14.77;41.49;101643.75;10568191;28;20491;-84
2023/11/27 15:52:51;;;;;;;6.53;3.15;;;;;;;14.67;41.59;101642.72;10574659;28;20139;-80
2023/11/27 15:58:15;;;;;;;2.35;1.70;;;;;;;14.60;41.92;101649.72;10572644;28;20063;-78
2023/11/27 16:03:37;;;;;;;1.30;0.90;;;;;;;14.70;41.62;101645.44;10561119;28;20139;-80
2023/11/27 16:09:00;;;;;;;3.13;2.28;;;;;;;14.60;41.83;101649.72;10572964;28;20081;-79
2023/11/27 16:14:25;;;;;;;1.77;1.60;;;;;;;14.64;41.49;101650.63;10567659;28;20139;-78
2023/11/27 16:19:47;;;;;;;2.58;1.80;;;;;;;14.67;41.16;101656.00;10568297;28;20047;-78
2023/11/27 16:25:14;;;;;;;0.85;0.45;;;;;;;14.60;41.09;101657.69;10574838;28;20039;-77
2023/11/27 16:30:38;;;;;;;2.28;0.85;;;;;;;14.39;41.51;101664.44;10575806;27;20496;-78
2023/11/27 16:36:00;;;;;;;2.58;1.40;;;;;;;14.43;41.64;101663.66;10562618;28;20054;-78
2023/11/27 16:41:24;;;;;;;3.35;0.98;;;;;;;14.43;42.20;101663.66;10561163;28;20259;-78
2023/11/27 16:46:48;;;;;;;6.32;3.17;;;;;;;14.36;42.66;101654.66;10579139;27;20051;-80
2023/11/27 16:52:12;;;;;;;4.18;2.05;;;;;;;14.23;43.47;101672.19;10590142;27;20050;-77
2023/11/27 16:57:35;;;;;;;4.38;1.85;;;;;;;14.16;44.19;101672.94;10596683;27;20055;-81
2023/11/27 17:03:01;;;;;;;5.60;3.45;;;;;;;14.44;44.20;101673.41;10594046;27;20573;-80
2023/11/27 17:08:29;;;;;;;5.03;2.25;;;;;;;14.71;43.70;101673.75;10559979;27;20048;-80
2023/11/27 17:13:51;;;;;;;26.95;9.70;;;;;;;14.70;43.85;101683.50;10582139;27;20124;-79
2023/11/27 17:19:16;;;;;;;6.25;3.75;;;;;;;14.83;43.68;101689.00;10566246;27;20396;-79
2023/11/27 17:24:39;;;;;;;4.00;2.78;;;;;;;15.05;43.24;101694.59;10557870;27;20036;-78
2023/11/27 17:30:02;;;;;;;1.63;1.00;;;;;;;15.23;42.94;101685.06;10582757;27;20559;-81
2023/11/27 17:35:28;;;;;;;1.80;1.00;;;;;;;15.03;44.17;101687.50;10595727;27;20043;-81
2023/11/27 17:40:51;;;;;;;5.07;1.30;;;;;;;14.59;45.85;101681.56;10567173;27;20108;-82
2023/11/27 17:46:14;;;;;;;1.85;1.27;;;;;;;14.23;47.56;101690.78;10560768;27;20051;-80
2023/11/27 17:51:39;;;;;;;4.63;1.30;;;;;;;14.10;48.78;101687.91;10592136;28;20366;-80
2023/11/27 17:57:02;;;;;;;5.05;1.08;;;;;;;14.02;49.89;101686.88;10586412;28;20051;-79
2023/11/27 18:02:24;;;;;;;2.53;0.88;;;;;;;13.84;51.59;101688.38;10601758;28;20049;-78
2023/11/27 18:07:49;;;;;;;4.45;1.40;;;;;;;13.79;53.18;101686.47;10584443;28;20074;-78
2023/11/27 18:13:11;;;;;;;1.75;0.70;;;;;;;13.68;54.56;101683.63;10601796;28;20454;-80
2023/11/27 18:18:35;;;;;;;4.32;3.92;;;;;;;13.54;56.11;101691.34;10565471;28;20044;-79
2023/11/27 18:24:01;;;;;;;1.20;0.80;;;;;;;13.49;57.27;101687.72;10601230;28;20047;-81
2023/11/27 18:29:23;;;;;;;1.08;0.82;;;;;;;13.57;58.04;101694.06;10584168;27;20047;-79
2023/11/27 18:34:46;;;;;;;1.33;0.85;;;;;;;13.73;57.77;101681.94;10586808;28;20039;-79
2023/11/27 18:40:14;;;;;;;1.05;0.70;;;;;;;13.92;57.03;101684.06;10603505;27;20070;-79
2023/11/27 18:45:37;;;;;;;2.58;0.70;;;;;;;13.88;57.25;101684.88;10596111;27;20048;-81
2023/11/27 18:50:59;;;;;;;4.93;3.97;;;;;;;13.90;57.54;101687.56;10603265;27;20100;-79
2023/11/27 18:56:24;;;;;;;2.47;1.80;;;;;;;13.94;56.86;101697.34;10610448;27;20055;-79
2023/11/27 19:01:47;;;;;;;3.97;2.67;;;;;;;14.01;56.01;101695.69;10590716;27;20389;-80
2023/11/27 19:07:11;;;;;;;3.42;2.80;;;;;;;13.87;56.23;101692.81;10594300;27;20054;-79
2023/11/27 19:12:36;;;;;;;0.85;0.60;;;;;;;13.71;57.45;101699.63;10569097;27;20103;-78
2023/11/27 19:17:58;;;;;;;2.15;0.63;;;;;;;13.46;59.24;101700.03;10593484;27;20047;-78
2023/11/27 19:23:21;;;;;;;5.78;3.22;;;;;;;13.07;62.20;101708.06;10584700;27;20035;-79
2023/11/27 19:28:47;;;;;;;14.90;8.10;;;;;;;12.83;64.57;101702.25;10576389;27;20044;-79
2023/11/27 19:34:09;;;;;;;12.60;7.28;;;;;;;12.53;66.87;101700.72;10604306;27;20054;-79
2023/11/27 19:39:32;;;;;;;3.20;1.85;;;;;;;11.98;72.35;101704.69;10586739;27;20047;-80
2023/11/27 19:44:57;;;;;;;11.38;7.35;;;;;;;11.61;77.49;101707.22;10584088;27;20074;-80
2023/11/27 19:50:20;;;;;;;4.38;1.30;;;;;;;11.44;79.96;101706.75;10602566;27;20050;-84
2023/11/27 19:55:42;;;;;;;3.35;1.55;;;;;;;11.35;82.28;101710.91;10578567;27;20048;-81
2023/11/27 20:01:12;;;;;;;2.35;1.33;;;;;;;11.44;81.98;101712.06;10590248;27;20043;-79
2023/11/27 20:06:36;;;;;;;15.73;9.52;;;;;;;11.11;84.59;101704.06;10586000;27;20043;-79
2023/11/27 20:11:58;;;;;;;73.30;33.58;;;;;;;11.01;85.96;101707.31;10583683;27;20050;-78
2023/11/27 20:17:22;;;;;;;6.95;3.22;;;;;;;10.75;89.69;101700.38;10585808;27;20048;-80
2023/11/27 20:22:45;;;;;;;2.75;2.13;;;;;;;10.66;94.04;101705.38;10570860;27;20096;-81
2023/11/27 20:28:08;;;;;;;5.25;1.75;;;;;;;11.01;91.87;101706.44;10577595;27;20043;-80
2023/11/27 20:33:36;;;;;;;13.95;5.35;;;;;;;11.17;90.01;101706.88;10587248;27;20050;-80
2023/11/27 20:38:59;;;;;;;27.33;12.77;;;;;;;11.04;90.62;101698.56;10602468;27;20496;-80
2023/11/27 20:44:22;;;;;;;7.43;3.03;;;;;;;10.95;92.17;101704.50;10593009;27;20122;-80
2023/11/27 20:49:46;;;;;;;7.10;3.08;;;;;;;10.84;93.39;101703.28;10585277;27;20051;-80
2023/11/27 20:55:09;;;;;;;13.68;5.18;;;;;;;10.75;94.46;101700.38;10580709;27;20059;-80
2023/11/27 21:00:32;;;;;;;6.80;2.53;;;;;;;10.77;94.38;101698.66;10602341;27;20043;-80
2023/11/27 21:05:56;;;;;;;5.95;2.13;;;;;;;10.68;95.51;101703.69;10590644;27;20059;-80
2023/11/27 21:11:20;;;;;;;3.28;1.95;;;;;;;10.61;96.60;101710.53;10565279;27;20047;-80
2023/11/27 21:16:43;;;;;;;4.20;2.13;;;;;;;10.48;97.82;101711.00;10582036;27;20516;-80
2023/11/27 21:22:07;;;;;;;1.90;1.20;;;;;;;10.55;97.92;101714.72;10589488;27;20031;-81
2023/11/27 21:27:31;;;;;;;11.05;4.40;;;;;;;10.56;97.68;101705.94;10594339;27;20051;-80
2023/11/27 21:32:54;;;;;;;10.43;3.40;;;;;;;10.48;98.25;101703.06;10601434;27;20047;-80
2023/11/27 21:38:18;;;;;;;4.00;2.00;;;;;;;10.45;98.97;101702.06;10601702;27;20051;-80
2023/11/27 21:43:41;;;;;;;2.05;1.40;;;;;;;10.45;99.64;101704.69;10601289;27;20039;-80
2023/11/27 21:49:03;;;;;;;1.48;1.00;;;;;;;10.58;98.90;101705.13;10596398;27;20134;-81
2023/11/27 21:54:28;;;;;;;2.00;0.90;;;;;;;10.56;98.51;101688.38;10602907;28;20043;-81
2023/11/27 21:59:51;;;;;;;2.80;1.08;;;;;;;10.62;98.08;101683.28;10616828;27;20388;-81
2023/11/27 22:05:13;;;;;;;1.63;1.10;;;;;;;10.56;98.13;101683.09;10602998;28;20500;-81
2023/11/27 22:10:37;;;;;;;4.65;2.35;;;;;;;10.61;98.38;101678.84;10602991;28;20782;-80
2023/11/27 22:15:59;;;;;;;5.05;2.03;;;;;;;10.93;95.66;101682.41;10604897;27;20333;-80
2023/11/27 22:21:22;;;;;;;2.55;1.55;;;;;;;10.92;94.82;101680.63;10597599;27;20046;-81
2023/11/27 22:26:45;;;;;;;1.38;1.00;;;;;;;10.81;95.45;101674.16;10593888;27;20443;-81
2023/11/27 22:32:08;;;;;;;1.58;0.90;;;;;;;10.70;96.44;101675.56;10593269;27;20047;-81
2023/11/27 22:37:30;;;;;;;19.73;9.13;;;;;;;10.64;96.88;101668.34;10610447;27;20047;-81
2023/11/27 22:42:54;;;;;;;12.40;7.97;;;;;;;10.75;95.97;101663.41;10610909;27;20047;-81
2023/11/27 22:48:16;;;;;;;2.10;1.33;;;;;;;10.72;95.47;101664.19;10579798;28;20588;-81
2023/11/27 22:53:39;;;;;;;2.00;1.38;;;;;;;10.71;96.88;101664.16;10580241;28;20071;-81
2023/11/27 22:59:03;;;;;;;1.40;1.13;;;;;;;10.76;95.51;101654.63;10608504;27;20048;-81
2023/11/27 23:04:26;;;;;;;2.60;0.85;;;;;;;10.77;95.68;101657.31;10567822;28;20389;-81
2023/11/27 23:09:48;;;;;;;0.77;0.70;;;;;;;10.95;93.99;101646.38;10581400;28;20047;-81
2023/11/27 23:15:12;;;;;;;2.05;0.90;;;;;;;10.82;93.82;101652.16;10539393;28;20051;-81
2023/11/27 23:20:35;;;;;;;2.72;0.90;;;;;;;10.53;96.36;101648.66;10541886;28;20047;-80
2023/11/27 23:25:57;;;;;;;3.15;1.95;;;;;;;10.38;97.67;101651.72;10538182;28;20074;-81
2023/11/27 23:31:22;;;;;;;15.90;10.00;;;;;;;10.32;98.97;101654.19;10524620;28;20059;-82
2023/11/27 23:36:44;;;;;;;6.75;2.20;;;;;;;10.32;98.64;101645.38;10538413;28;20048;-82
2023/11/27 23:42:07;;;;;;;3.90;1.70;;;;;;;10.18;99.49;101650.22;10557705;28;20544;-80
2023/11/27 23:47:31;;;;;;;1.15;0.85;;;;;;;10.16;100.00;101651.00;10555295;28;20048;-80
2023/11/27 23:52:53;;;;;;;1.05;0.70;;;;;;;10.16;99.81;101643.97;10564247;28;20409;-81
2023/11/27 23:58:16;;;;;;;1.30;0.47;;;;;;;10.33;98.92;101653.34;10564271;28;20698;-81
